sensor_id;sensor_type;location;lat;lon;timestamp;pressure;altitude;pressure_sealevel;temperature;humidity
48386;BME280;34644;47.964;7.982;2023-06-14T00:01:59;96086.59;;;17.58;38.21
48386;BME280;34644;47.964;7.982;2023-06-14T00:08:59;96086.34;;;17.41;38.51
48386;BME280;34644;47.964;7.982;2023-06-14T00:15:59;96088.38;;;17.30;38.64
48386;BME280;34644;47.964;7.982;2023-06-14T00:23:00;96083.94;;;17.25;38.71
48386;BME280;34644;47.964;7.982;2023-06-14T00:30:00;96087.94;;;17.42;38.70
48386;BME280;34644;47.964;7.982;2023-06-14T00:37:01;96086.00;;;17.09;38.90
48386;BME280;34644;47.964;7.982;2023-06-14T00:44:01;96084.63;;;17.31;39.14
48386;BME280;34644;47.964;7.982;2023-06-14T00:51:01;96082.19;;;17.15;39.08
48386;BME280;34644;47.964;7.982;2023-06-14T00:58:04;96077.41;;;16.50;39.93
48386;BME280;34644;47.964;7.982;2023-06-14T01:05:04;96077.22;;;16.90;39.29
48386;BME280;34644;47.964;7.982;2023-06-14T01:12:09;96088.56;;;16.76;39.56
48386;BME280;34644;47.964;7.982;2023-06-14T01:19:12;96079.09;;;16.89;39.09
48386;BME280;34644;47.964;7.982;2023-06-14T01:26:14;96076.66;;;16.69;39.73
48386;BME280;34644;47.964;7.982;2023-06-14T01:33:17;96076.84;;;16.53;40.06
48386;BME280;34644;47.964;7.982;2023-06-14T01:40:18;96076.91;;;16.48;39.58
48386;BME280;34644;47.964;7.982;2023-06-14T01:47:20;96079.19;;;16.36;39.91
48386;BME280;34644;47.964;7.982;2023-06-14T01:54:22;96081.91;;;16.31;39.87
48386;BME280;34644;47.964;7.982;2023-06-14T02:01:22;96078.22;;;16.26;40.14
48386;BME280;34644;47.964;7.982;2023-06-14T02:08:23;96078.16;;;16.32;39.52
48386;BME280;34644;47.964;7.982;2023-06-14T02:15:23;96079.41;;;16.39;39.72
48386;BME280;34644;47.964;7.982;2023-06-14T02:22:23;96087.53;;;16.24;40.00
48386;BME280;34644;47.964;7.982;2023-06-14T02:29:24;96086.97;;;16.27;39.71
48386;BME280;34644;47.964;7.982;2023-06-14T02:36:24;96082.66;;;16.07;40.02
48386;BME280;34644;47.964;7.982;2023-06-14T02:43:24;96078.69;;;16.34;39.71
48386;BME280;34644;47.964;7.982;2023-06-14T02:50:25;96088.13;;;16.21;39.61
48386;BME280;34644;47.964;7.982;2023-06-14T02:57:28;96087.25;;;16.25;39.64
48386;BME280;34644;47.964;7.982;2023-06-14T03:04:28;96095.44;;;16.05;40.11
48386;BME280;34644;47.964;7.982;2023-06-14T03:11:30;96101.56;;;16.05;40.00
48386;BME280;34644;47.964;7.982;2023-06-14T03:18:31;96108.88;;;15.89;40.51
48386;BME280;34644;47.964;7.982;2023-06-14T03:25:35;96112.97;;;15.71;40.55
48386;BME280;34644;47.964;7.982;2023-06-14T03:32:40;96114.53;;;15.38;41.04
48386;BME280;34644;47.964;7.982;2023-06-14T03:39:41;96122.31;;;15.64;40.70
48386;BME280;34644;47.964;7.982;2023-06-14T03:46:48;96134.16;;;17.13;41.88
48386;BME280;34644;47.964;7.982;2023-06-14T03:53:49;96138.03;;;17.78;39.97
48386;BME280;34644;47.964;7.982;2023-06-14T04:00:49;96140.53;;;17.88;39.21
48386;BME280;34644;47.964;7.982;2023-06-14T04:07:50;96142.97;;;17.84;39.00
48386;BME280;34644;47.964;7.982;2023-06-14T04:14:50;96148.88;;;17.81;38.73
48386;BME280;34644;47.964;7.982;2023-06-14T04:21:51;96153.72;;;17.98;38.84
48386;BME280;34644;47.964;7.982;2023-06-14T04:28:52;96162.00;;;17.78;38.40
48386;BME280;34644;47.964;7.982;2023-06-14T04:35:52;96172.03;;;17.67;38.43
48386;BME280;34644;47.964;7.982;2023-06-14T04:42:54;96178.63;;;17.31;38.08
48386;BME280;34644;47.964;7.982;2023-06-14T04:49:56;96182.03;;;17.56;38.77
48386;BME280;34644;47.964;7.982;2023-06-14T04:56:57;96186.38;;;17.90;38.88
48386;BME280;34644;47.964;7.982;2023-06-14T05:04:00;96191.16;;;18.54;39.32
48386;BME280;34644;47.964;7.982;2023-06-14T05:11:00;96190.78;;;18.74;39.29
48386;BME280;34644;47.964;7.982;2023-06-14T05:18:01;96192.09;;;18.91;39.66
48386;BME280;34644;47.964;7.982;2023-06-14T05:25:02;96193.00;;;19.00;40.11
48386;BME280;34644;47.964;7.982;2023-06-14T05:32:03;96190.13;;;19.10;40.35
48386;BME280;34644;47.964;7.982;2023-06-14T05:39:03;96191.28;;;19.18;40.57
48386;BME280;34644;47.964;7.982;2023-06-14T05:46:04;96198.91;;;19.25;40.56
48386;BME280;34644;47.964;7.982;2023-06-14T05:53:04;96195.06;;;19.31;40.88
48386;BME280;34644;47.964;7.982;2023-06-14T06:00:06;96194.94;;;19.36;40.80
48386;BME280;34644;47.964;7.982;2023-06-14T06:07:14;96189.97;;;19.43;40.99
48386;BME280;34644;47.964;7.982;2023-06-14T06:14:14;96189.88;;;19.48;41.29
48386;BME280;34644;47.964;7.982;2023-06-14T06:21:15;96195.09;;;19.53;41.19
48386;BME280;34644;47.964;7.982;2023-06-14T06:28:15;96201.44;;;19.58;41.43
48386;BME280;34644;47.964;7.982;2023-06-14T06:35:16;96204.00;;;19.63;41.42
48386;BME280;34644;47.964;7.982;2023-06-14T06:42:16;96208.44;;;19.67;41.57
48386;BME280;34644;47.964;7.982;2023-06-14T06:49:17;96211.78;;;19.73;41.69
48386;BME280;34644;47.964;7.982;2023-06-14T06:56:18;96204.75;;;19.77;41.93
48386;BME280;34644;47.964;7.982;2023-06-14T07:03:18;96211.06;;;19.81;41.93
48386;BME280;34644;47.964;7.982;2023-06-14T07:10:18;96209.88;;;19.87;42.10
48386;BME280;34644;47.964;7.982;2023-06-14T07:17:22;96203.91;;;19.91;42.15
48386;BME280;34644;47.964;7.982;2023-06-14T07:24:23;96205.69;;;19.95;42.28
48386;BME280;34644;47.964;7.982;2023-06-14T07:31:23;96201.31;;;19.99;42.21
48386;BME280;34644;47.964;7.982;2023-06-14T07:38:23;96211.41;;;20.02;42.67
48386;BME280;34644;47.964;7.982;2023-06-14T07:45:24;96207.81;;;20.07;42.39
48386;BME280;34644;47.964;7.982;2023-06-14T07:52:24;96205.81;;;20.13;42.86
48386;BME280;34644;47.964;7.982;2023-06-14T07:59:25;96206.78;;;20.17;42.85
48386;BME280;34644;47.964;7.982;2023-06-14T08:06:25;96209.63;;;20.20;42.93
48386;BME280;34644;47.964;7.982;2023-06-14T08:13:26;96207.94;;;20.24;42.94
48386;BME280;34644;47.964;7.982;2023-06-14T08:20:26;96197.41;;;20.28;42.74
48386;BME280;34644;47.964;7.982;2023-06-14T08:27:26;96214.44;;;20.32;42.80
48386;BME280;34644;47.964;7.982;2023-06-14T08:34:27;96206.28;;;20.37;42.93
48386;BME280;34644;47.964;7.982;2023-06-14T08:41:27;96209.13;;;20.41;42.85
48386;BME280;34644;47.964;7.982;2023-06-14T08:48:29;96211.66;;;20.46;43.09
48386;BME280;34644;47.964;7.982;2023-06-14T08:55:32;96220.69;;;20.50;42.96
48386;BME280;34644;47.964;7.982;2023-06-14T09:02:38;96221.66;;;20.54;43.08
48386;BME280;34644;47.964;7.982;2023-06-14T09:09:43;96227.97;;;20.58;42.93
48386;BME280;34644;47.964;7.982;2023-06-14T09:16:43;96218.72;;;20.65;43.12
48386;BME280;34644;47.964;7.982;2023-06-14T09:23:44;96214.34;;;20.69;43.17
48386;BME280;34644;47.964;7.982;2023-06-14T09:30:45;96219.09;;;20.72;43.02
48386;BME280;34644;47.964;7.982;2023-06-14T09:37:45;96221.63;;;20.77;43.30
48386;BME280;34644;47.964;7.982;2023-06-14T09:44:47;96230.63;;;20.81;43.06
48386;BME280;34644;47.964;7.982;2023-06-14T09:51:50;96240.72;;;20.84;43.16
48386;BME280;34644;47.964;7.982;2023-06-14T09:58:51;96231.44;;;20.90;43.32
48386;BME280;34644;47.964;7.982;2023-06-14T10:05:54;96224.69;;;20.93;43.01
48386;BME280;34644;47.964;7.982;2023-06-14T10:12:55;96221.06;;;20.98;43.35
48386;BME280;34644;47.964;7.982;2023-06-14T10:19:57;96218.56;;;21.01;43.19
48386;BME280;34644;47.964;7.982;2023-06-14T10:27:01;96211.19;;;21.07;42.96
48386;BME280;34644;47.964;7.982;2023-06-14T10:34:01;96209.44;;;21.11;43.19
48386;BME280;34644;47.964;7.982;2023-06-14T10:41:01;96202.38;;;21.15;43.08
48386;BME280;34644;47.964;7.982;2023-06-14T10:48:02;96212.94;;;21.20;43.17
48386;BME280;34644;47.964;7.982;2023-06-14T10:55:14;96207.47;;;21.25;42.95
48386;BME280;34644;47.964;7.982;2023-06-14T11:02:36;96200.34;;;21.29;43.21
48386;BME280;34644;47.964;7.982;2023-06-14T11:16:49;96207.00;;;21.41;42.97
48386;BME280;34644;47.964;7.982;2023-06-14T11:23:52;96202.59;;;21.45;42.98
48386;BME280;34644;47.964;7.982;2023-06-14T11:31:00;96194.75;;;21.48;43.05
48386;BME280;34644;47.964;7.982;2023-06-14T11:38:01;96189.22;;;21.54;42.95
48386;BME280;34644;47.964;7.982;2023-06-14T11:45:02;96192.88;;;21.58;43.14
48386;BME280;34644;47.964;7.982;2023-06-14T11:52:03;96187.66;;;21.61;43.23
48386;BME280;34644;47.964;7.982;2023-06-14T11:59:03;96178.66;;;21.66;43.07
48386;BME280;34644;47.964;7.982;2023-06-14T12:06:06;96174.56;;;21.68;43.28
48386;BME280;34644;47.964;7.982;2023-06-14T12:13:09;96173.31;;;21.75;43.12
48386;BME280;34644;47.964;7.982;2023-06-14T12:20:13;96176.94;;;21.79;43.38
48386;BME280;34644;47.964;7.982;2023-06-14T12:27:31;96176.28;;;21.82;43.46
48386;BME280;34644;47.964;7.982;2023-06-14T12:34:33;96179.47;;;21.84;43.18
48386;BME280;34644;47.964;7.982;2023-06-14T12:41:33;96173.47;;;21.87;43.12
48386;BME280;34644;47.964;7.982;2023-06-14T12:48:33;96173.94;;;21.89;43.19
48386;BME280;34644;47.964;7.982;2023-06-14T12:55:34;96174.41;;;21.91;43.41
48386;BME280;34644;47.964;7.982;2023-06-14T13:02:34;96178.03;;;21.95;43.24
48386;BME280;34644;47.964;7.982;2023-06-14T13:09:35;96176.59;;;21.98;43.18
48386;BME280;34644;47.964;7.982;2023-06-14T13:16:35;96172.50;;;22.00;43.36
48386;BME280;34644;47.964;7.982;2023-06-14T13:23:36;96171.88;;;22.03;43.64
48386;BME280;34644;47.964;7.982;2023-06-14T13:30:36;96178.81;;;22.04;43.57
48386;BME280;34644;47.964;7.982;2023-06-14T13:37:37;96175.97;;;22.10;43.31
48386;BME280;34644;47.964;7.982;2023-06-14T13:44:37;96166.00;;;22.10;43.42
48386;BME280;34644;47.964;7.982;2023-06-14T13:51:37;96174.19;;;22.14;43.51
48386;BME280;34644;47.964;7.982;2023-06-14T13:58:38;96162.06;;;22.16;43.67
48386;BME280;34644;47.964;7.982;2023-06-14T14:05:38;96160.16;;;22.17;43.64
48386;BME280;34644;47.964;7.982;2023-06-14T14:12:38;96161.41;;;22.19;43.46
48386;BME280;34644;47.964;7.982;2023-06-14T14:19:40;96171.84;;;22.21;43.57
48386;BME280;34644;47.964;7.982;2023-06-14T14:26:40;96169.00;;;22.17;44.02
48386;BME280;34644;47.964;7.982;2023-06-14T14:33:40;96166.16;;;22.22;43.91
48386;BME280;34644;47.964;7.982;2023-06-14T14:40:41;96171.97;;;22.25;43.73
48386;BME280;34644;47.964;7.982;2023-06-14T14:47:41;96179.72;;;22.26;43.79
48386;BME280;34644;47.964;7.982;2023-06-14T14:54:44;96174.53;;;22.30;43.77
48386;BME280;34644;47.964;7.982;2023-06-14T15:01:44;96167.28;;;22.30;43.80
48386;BME280;34644;47.964;7.982;2023-06-14T15:08:45;96170.72;;;22.31;43.94
48386;BME280;34644;47.964;7.982;2023-06-14T15:15:45;96177.38;;;22.33;43.91
48386;BME280;34644;47.964;7.982;2023-06-14T15:22:46;96185.09;;;22.35;43.92
48386;BME280;34644;47.964;7.982;2023-06-14T15:29:46;96179.41;;;22.36;43.84
48386;BME280;34644;47.964;7.982;2023-06-14T15:36:46;96182.56;;;22.38;44.02
48386;BME280;34644;47.964;7.982;2023-06-14T15:43:47;96187.59;;;22.40;44.18
48386;BME280;34644;47.964;7.982;2023-06-14T15:50:47;96180.34;;;22.40;44.10
48386;BME280;34644;47.964;7.982;2023-06-14T15:57:47;96176.56;;;22.42;44.01
48386;BME280;34644;47.964;7.982;2023-06-14T16:04:47;96182.38;;;22.44;44.40
48386;BME280;34644;47.964;7.982;2023-06-14T16:11:48;96177.00;;;22.44;44.20
48386;BME280;34644;47.964;7.982;2023-06-14T16:18:48;96179.69;;;22.44;44.20
48386;BME280;34644;47.964;7.982;2023-06-14T16:25:49;96199.75;;;22.46;44.38
48386;BME280;34644;47.964;7.982;2023-06-14T16:32:49;96202.59;;;22.50;44.34
48386;BME280;34644;47.964;7.982;2023-06-14T16:39:49;96204.94;;;22.51;44.38
48386;BME280;34644;47.964;7.982;2023-06-14T16:46:50;96206.06;;;22.50;44.53
48386;BME280;34644;47.964;7.982;2023-06-14T16:53:50;96216.00;;;22.50;44.57
48386;BME280;34644;47.964;7.982;2023-06-14T17:00:51;96220.28;;;22.51;44.78
48386;BME280;34644;47.964;7.982;2023-06-14T17:07:52;96229.94;;;22.52;44.45
48386;BME280;34644;47.964;7.982;2023-06-14T17:14:52;96235.28;;;22.52;44.76
48386;BME280;34644;47.964;7.982;2023-06-14T17:21:52;96247.59;;;22.53;44.64
48386;BME280;34644;47.964;7.982;2023-06-14T17:28:56;96265.28;;;22.54;44.62
48386;BME280;34644;47.964;7.982;2023-06-14T17:35:56;96267.50;;;22.52;44.72
48386;BME280;34644;47.964;7.982;2023-06-14T17:42:57;96273.66;;;22.52;44.72
48386;BME280;34644;47.964;7.982;2023-06-14T17:49:57;96278.72;;;22.54;44.91
48386;BME280;34644;47.964;7.982;2023-06-14T17:56:59;96283.91;;;22.59;43.60
48386;BME280;34644;47.964;7.982;2023-06-14T18:03:59;96291.38;;;22.53;43.20
48386;BME280;34644;47.964;7.982;2023-06-14T18:10:59;96298.63;;;22.53;42.87
48386;BME280;34644;47.964;7.982;2023-06-14T18:18:00;96309.38;;;22.44;43.32
48386;BME280;34644;47.964;7.982;2023-06-14T18:25:00;96319.94;;;22.40;42.76
48386;BME280;34644;47.964;7.982;2023-06-14T18:32:01;96323.88;;;22.26;40.11
48386;BME280;34644;47.964;7.982;2023-06-14T18:39:01;96333.50;;;22.27;41.07
48386;BME280;34644;47.964;7.982;2023-06-14T18:46:01;96340.47;;;22.19;40.88
48386;BME280;34644;47.964;7.982;2023-06-14T18:53:02;96341.09;;;22.16;40.58
48386;BME280;34644;47.964;7.982;2023-06-14T19:00:02;96341.56;;;22.09;40.61
48386;BME280;34644;47.964;7.982;2023-06-14T19:07:05;96342.47;;;21.96;40.19
48386;BME280;34644;47.964;7.982;2023-06-14T19:14:05;96356.81;;;21.91;40.65
48386;BME280;34644;47.964;7.982;2023-06-14T19:21:06;96353.50;;;21.85;40.78
48386;BME280;34644;47.964;7.982;2023-06-14T19:28:06;96371.47;;;21.76;41.03
48386;BME280;34644;47.964;7.982;2023-06-14T19:35:06;96387.38;;;21.73;40.84
48386;BME280;34644;47.964;7.982;2023-06-14T19:42:07;96407.75;;;21.74;41.06
48386;BME280;34644;47.964;7.982;2023-06-14T19:49:08;96411.94;;;21.57;41.37
48386;BME280;34644;47.964;7.982;2023-06-14T19:56:08;96413.75;;;21.48;41.33
48386;BME280;34644;47.964;7.982;2023-06-14T20:03:09;96425.03;;;21.59;41.61
48386;BME280;34644;47.964;7.982;2023-06-14T20:10:10;96437.63;;;21.58;41.80
48386;BME280;34644;47.964;7.982;2023-06-14T20:17:11;96435.53;;;21.78;41.74
48386;BME280;34644;47.964;7.982;2023-06-14T20:24:11;96440.59;;;21.88;42.19
48386;BME280;34644;47.964;7.982;2023-06-14T20:31:13;96442.38;;;21.61;42.09
48386;BME280;34644;47.964;7.982;2023-06-14T20:38:15;96449.06;;;21.41;41.31
48386;BME280;34644;47.964;7.982;2023-06-14T20:45:16;96448.16;;;21.46;41.29
48386;BME280;34644;47.964;7.982;2023-06-14T20:52:16;96459.66;;;21.46;41.75
48386;BME280;34644;47.964;7.982;2023-06-14T20:59:17;96455.06;;;21.47;41.08
48386;BME280;34644;47.964;7.982;2023-06-14T21:06:17;96461.94;;;20.71;42.75
48386;BME280;34644;47.964;7.982;2023-06-14T21:13:17;96468.13;;;20.44;43.62
48386;BME280;34644;47.964;7.982;2023-06-14T21:20:18;96458.72;;;20.60;43.37
48386;BME280;34644;47.964;7.982;2023-06-14T21:27:18;96462.91;;;20.25;44.33
48386;BME280;34644;47.964;7.982;2023-06-14T21:34:19;96470.06;;;20.16;44.15
48386;BME280;34644;47.964;7.982;2023-06-14T21:41:19;96462.44;;;20.09;43.87
48386;BME280;34644;47.964;7.982;2023-06-14T21:48:19;96476.31;;;19.97;44.30
48386;BME280;34644;47.964;7.982;2023-06-14T21:55:20;96475.09;;;20.03;44.26
48386;BME280;34644;47.964;7.982;2023-06-14T22:02:23;96481.88;;;20.01;44.53
48386;BME280;34644;47.964;7.982;2023-06-14T22:09:23;96472.69;;;19.74;44.87
48386;BME280;34644;47.964;7.982;2023-06-14T22:16:26;96469.84;;;19.70;45.27
48386;BME280;34644;47.964;7.982;2023-06-14T22:23:26;96462.88;;;19.56;45.01
48386;BME280;34644;47.964;7.982;2023-06-14T22:30:36;96460.09;;;19.47;44.48
48386;BME280;34644;47.964;7.982;2023-06-14T22:37:36;96471.16;;;19.40;44.47
48386;BME280;34644;47.964;7.982;2023-06-14T22:44:37;96467.97;;;19.38;43.97
48386;BME280;34644;47.964;7.982;2023-06-14T22:51:39;96476.97;;;19.28;43.56
48386;BME280;34644;47.964;7.982;2023-06-14T22:58:40;96473.25;;;19.10;43.65
48386;BME280;34644;47.964;7.982;2023-06-14T23:05:42;96474.16;;;19.20;43.62
48386;BME280;34644;47.964;7.982;2023-06-14T23:12:42;96469.28;;;19.08;44.08
48386;BME280;34644;47.964;7.982;2023-06-14T23:19:42;96459.34;;;18.94;44.32
48386;BME280;34644;47.964;7.982;2023-06-14T23:26:43;96458.81;;;18.92;44.83
48386;BME280;34644;47.964;7.982;2023-06-14T23:33:45;96454.31;;;18.93;44.54
48386;BME280;34644;47.964;7.982;2023-06-14T23:40:46;96455.28;;;18.97;44.60
48386;BME280;34644;47.964;7.982;2023-06-14T23:47:49;96450.09;;;19.06;44.81
48386;BME280;34644;47.964;7.982;2023-06-14T23:54:49;96456.34;;;18.77;45.64
